You are not logged in, Click here to log in
Kuwait International Airport / OKBK Kuwait City
ICAO: OKBK Country: Kuwait City
Latitude: 29.2266 Longitude: 47.9689
Total Arrivals: 3 Total Departures: 4
Latest Arrival: FZ67 (OMDB-OKBK)Jason. Li Latest Departure: KU501 (OKBK-OLBA)Jason. Li
Scenery: https://en.wikipedia.org/wiki/Prince_Hassan_Air_Base
METAR : OKBK 090700Z 31003KT CAVOK 17/08 Q1021 NOSIG

Kuwait International Airport

You are accessing this site from IP address 100.26.176.182. Virtual Airline. CMS by phpVMS.Website designed by Zumeweb and edited by Theo Bearman.
There is 0 User(s) Online: | and 11 Guest(s) Online.
All information on this site is for fight simulation purposes only. This site is for flight logging for pilots of Virtual Airline&模擬飛行論壇 FlySim only.